Time,TemperatureF,DewpointF,PressureIn,WindDirection,WindDirectionDegrees,WindSpeedMPH,WindSpeedGustMPH,Humidity,HourlyPrecipIn,Conditions,Clouds,dailyrainin,SoftwareType,DateUTC
2013-03-12 00:01:00,28.6,26.1,29.82,NW,315,7.0,9.0,90,0.00,,,0.00,meteohub,2013-03-12 05:01:00,
2013-03-12 00:06:00,28.6,26.1,29.82,NW,308,6.0,10.0,90,0.00,,,0.00,meteohub,2013-03-12 05:06:00,
2013-03-12 00:11:00,28.4,25.9,29.82,NNW,331,4.0,10.0,90,0.00,,,0.00,meteohub,2013-03-12 05:11:00,
2013-03-12 00:16:00,28.4,26.1,29.82,NNW,331,3.0,10.0,91,0.00,,,0.00,meteohub,2013-03-12 05:16:00,
2013-03-12 00:21:00,28.2,25.9,29.82,NW,322,3.0,10.0,91,0.00,,,0.00,meteohub,2013-03-12 05:21:00,
2013-03-12 00:26:00,28.2,25.9,29.82,WNW,303,3.0,9.0,91,0.00,,,0.00,meteohub,2013-03-12 05:26:00,
2013-03-12 00:31:00,28.2,25.9,29.82,NW,307,1.0,9.0,91,0.00,,,0.00,meteohub,2013-03-12 05:31:00,
2013-03-12 00:36:00,28.2,25.9,29.82,NNW,343,7.0,7.0,91,0.00,,,0.00,meteohub,2013-03-12 05:36:00,
2013-03-12 00:41:00,28.2,26.2,29.82,NNW,327,5.0,7.0,92,0.00,,,0.00,meteohub,2013-03-12 05:41:00,
2013-03-12 00:46:00,28.2,26.2,29.82,NW,308,5.0,7.0,92,0.00,,,0.00,meteohub,2013-03-12 05:46:00,
2013-03-12 00:51:00,28.2,26.2,29.82,NW,321,8.0,8.0,92,0.00,,,0.00,meteohub,2013-03-12 05:51:00,
2013-03-12 00:56:00,28.2,26.2,29.83,NW,304,6.0,11.0,92,0.00,,,0.00,meteohub,2013-03-12 05:56:00,
2013-03-12 01:01:00,28.2,26.2,29.83,NW,304,5.0,12.0,92,0.00,,,0.00,meteohub,2013-03-12 06:01:00,
2013-03-12 01:07:00,28.4,26.4,29.83,NW,315,7.0,13.0,92,0.00,,,0.00,meteohub,2013-03-12 06:07:00,
2013-03-12 01:12:00,28.2,25.9,29.83,NW,310,11.0,18.0,91,0.00,,,0.00,meteohub,2013-03-12 06:12:00,
2013-03-12 01:17:00,28.0,25.7,29.83,NNW,327,10.0,18.0,91,0.00,,,0.00,meteohub,2013-03-12 06:17:00,
2013-03-12 01:22:00,27.9,25.9,29.83,NW,315,12.0,20.0,92,0.00,,,0.00,meteohub,2013-03-12 06:22:00,
2013-03-12 01:27:00,27.9,25.9,29.83,NW,324,7.0,20.0,92,0.00,,,0.00,meteohub,2013-03-12 06:27:00,
2013-03-12 01:32:00,27.7,25.9,29.83,WNW,300,7.0,19.0,93,0.00,,,0.00,meteohub,2013-03-12 06:32:00,
2013-03-12 01:37:00,27.5,25.7,29.84,NW,320,12.0,17.0,93,0.00,,,0.00,meteohub,2013-03-12 06:37:00,
2013-03-12 01:42:00,27.3,25.5,29.84,NNW,338,6.0,17.0,93,0.00,,,0.00,meteohub,2013-03-12 06:42:00,
2013-03-12 01:47:00,27.3,25.5,29.84,NW,317,5.0,17.0,93,0.00,,,0.00,meteohub,2013-03-12 06:47:00,
2013-03-12 01:52:00,27.3,25.5,29.84,WNW,303,5.0,16.0,93,0.00,,,0.00,meteohub,2013-03-12 06:52:00,
2013-03-12 01:57:00,27.1,25.7,29.84,NW,305,10.0,11.0,94,0.00,,,0.00,meteohub,2013-03-12 06:57:00,
2013-03-12 02:02:00,27.1,25.7,29.85,NW,313,7.0,12.0,94,0.00,,,0.00,meteohub,2013-03-12 07:02:00,
2013-03-12 02:07:00,27.1,25.7,29.85,WNW,301,8.0,13.0,94,0.00,,,0.00,meteohub,2013-03-12 07:07:00,
2013-03-12 02:12:00,27.1,25.7,29.85,NW,307,5.0,13.0,94,0.00,,,0.00,meteohub,2013-03-12 07:12:00,
2013-03-12 02:17:00,27.0,25.5,29.85,WNW,302,10.0,11.0,94,0.00,,,0.00,meteohub,2013-03-12 07:17:00,
2013-03-12 02:22:00,27.0,25.2,29.85,WNW,301,9.0,15.0,93,0.00,,,0.00,meteohub,2013-03-12 07:22:00,
2013-03-12 02:27:00,27.0,25.2,29.85,WNW,302,7.0,15.0,93,0.00,,,0.00,meteohub,2013-03-12 07:27:00,
2013-03-12 02:32:00,26.8,25.0,29.85,NW,320,8.0,15.0,93,0.00,,,0.00,meteohub,2013-03-12 07:32:00,
2013-03-12 02:37:00,26.8,25.0,29.86,WNW,293,9.0,14.0,93,0.00,,,0.00,meteohub,2013-03-12 07:37:00,
2013-03-12 02:42:00,26.8,25.0,29.86,NW,313,6.0,14.0,93,0.00,,,0.00,meteohub,2013-03-12 07:42:00,
2013-03-12 02:47:00,26.8,25.0,29.86,NW,313,9.0,16.0,93,0.00,,,0.00,meteohub,2013-03-12 07:47:00,
2013-03-12 02:52:00,26.8,25.0,29.86,NW,313,9.0,16.0,93,0.00,,,0.00,meteohub,2013-03-12 07:52:00,
2013-03-12 02:57:00,26.8,25.0,29.86,NW,319,11.0,12.0,93,0.00,,,0.00,meteohub,2013-03-12 07:57:00,
2013-03-12 03:02:00,26.6,24.8,29.86,NW,306,9.0,16.0,93,0.00,,,0.00,meteohub,2013-03-12 08:02:00,
2013-03-12 03:07:00,26.6,24.8,29.86,NW,312,7.0,16.0,93,0.00,,,0.00,meteohub,2013-03-12 08:07:00,
2013-03-12 03:12:00,26.6,24.6,29.86,NW,308,5.0,16.0,92,0.00,,,0.00,meteohub,2013-03-12 08:12:00,
2013-03-12 03:17:00,26.6,24.6,29.86,NW,306,11.0,13.0,92,0.00,,,0.00,meteohub,2013-03-12 08:17:00,
2013-03-12 03:22:00,26.6,24.6,29.86,WNW,303,6.0,13.0,92,0.00,,,0.00,meteohub,2013-03-12 08:22:00,
2013-03-12 03:27:00,26.6,24.6,29.86,NW,315,11.0,13.0,92,0.00,,,0.00,meteohub,2013-03-12 08:27:00,
2013-03-12 03:32:00,26.6,24.6,29.86,WNW,289,7.0,14.0,92,0.00,,,0.00,meteohub,2013-03-12 08:32:00,
2013-03-12 03:37:00,26.4,24.4,29.86,NW,311,11.0,17.0,92,0.00,,,0.00,meteohub,2013-03-12 08:37:00,
2013-03-12 03:42:00,26.2,24.3,29.86,West,277,12.0,17.0,92,0.00,,,0.00,meteohub,2013-03-12 08:42:00,
2013-03-12 03:47:00,26.2,24.4,29.86,NW,304,11.0,17.0,93,0.00,,,0.00,meteohub,2013-03-12 08:47:00,
2013-03-12 03:52:00,26.2,24.3,29.87,WNW,299,8.0,16.0,92,0.00,,,0.00,meteohub,2013-03-12 08:52:00,
2013-03-12 03:57:00,26.1,24.1,29.87,WNW,294,13.0,14.0,92,0.00,,,0.00,meteohub,2013-03-12 08:57:00,
2013-03-12 04:02:00,25.9,23.5,29.87,West,276,12.0,16.0,91,0.00,,,0.00,meteohub,2013-03-12 09:02:00,
2013-03-12 04:07:00,25.9,23.5,29.87,NW,314,9.0,18.0,91,0.00,,,0.00,meteohub,2013-03-12 09:07:00,
2013-03-12 04:12:00,25.9,23.5,29.87,WNW,293,11.0,18.0,91,0.00,,,0.00,meteohub,2013-03-12 09:12:00,
2013-03-12 04:18:00,25.9,23.5,29.87,NW,311,11.0,16.0,91,0.00,,,0.00,meteohub,2013-03-12 09:18:00,
2013-03-12 04:23:00,25.7,23.4,29.87,NW,313,11.0,17.0,91,0.00,,,0.00,meteohub,2013-03-12 09:23:00,
2013-03-12 04:28:00,25.7,23.4,29.87,NW,324,9.0,17.0,91,0.00,,,0.00,meteohub,2013-03-12 09:28:00,
2013-03-12 04:33:00,25.7,23.2,29.87,WNW,301,12.0,16.0,90,0.00,,,0.00,meteohub,2013-03-12 09:33:00,
2013-03-12 04:38:00,25.5,23.0,29.88,WNW,295,6.0,18.0,90,0.00,,,0.00,meteohub,2013-03-12 09:38:00,
2013-03-12 04:43:00,25.5,23.0,29.88,NW,315,5.0,18.0,90,0.00,,,0.00,meteohub,2013-03-12 09:43:00,
2013-03-12 04:48:00,25.5,23.2,29.88,WNW,296,12.0,18.0,91,0.00,,,0.00,meteohub,2013-03-12 09:48:00,
2013-03-12 04:53:00,25.5,23.2,29.88,WNW,294,7.0,16.0,91,0.00,,,0.00,meteohub,2013-03-12 09:53:00,
2013-03-12 04:58:00,25.3,22.8,29.88,WNW,301,9.0,15.0,90,0.00,,,0.00,meteohub,2013-03-12 09:58:00,
2013-03-12 05:03:00,25.3,23.0,29.88,WNW,295,12.0,15.0,91,0.00,,,0.00,meteohub,2013-03-12 10:03:00,
2013-03-12 05:08:00,25.3,22.8,29.88,WNW,298,15.0,15.0,90,0.00,,,0.00,meteohub,2013-03-12 10:08:00,
2013-03-12 05:13:00,25.2,22.6,29.88,WNW,287,8.0,15.0,90,0.00,,,0.00,meteohub,2013-03-12 10:13:00,
2013-03-12 05:18:00,25.0,22.5,29.88,NW,307,8.0,15.0,90,0.00,,,0.00,meteohub,2013-03-12 10:18:00,
2013-03-12 05:23:00,25.0,22.5,29.88,NW,317,10.0,16.0,90,0.00,,,0.00,meteohub,2013-03-12 10:23:00,
2013-03-12 05:28:00,25.0,22.5,29.89,WNW,299,13.0,16.0,90,0.00,,,0.00,meteohub,2013-03-12 10:28:00,
2013-03-12 05:33:00,24.6,22.1,29.88,NW,307,9.0,16.0,90,0.00,,,0.00,meteohub,2013-03-12 10:33:00,
2013-03-12 05:38:00,24.6,22.1,29.89,NW,310,7.0,16.0,90,0.00,,,0.00,meteohub,2013-03-12 10:38:00,
2013-03-12 05:43:00,24.4,21.7,29.89,NW,320,12.0,15.0,89,0.00,,,0.00,meteohub,2013-03-12 10:43:00,
2013-03-12 05:48:00,24.4,21.7,29.89,NW,306,11.0,18.0,89,0.00,,,0.00,meteohub,2013-03-12 10:48:00,
2013-03-12 05:53:00,24.3,21.7,29.89,West,275,6.0,18.0,90,0.00,,,0.00,meteohub,2013-03-12 10:53:00,
2013-03-12 05:58:00,23.7,21.2,29.89,WNW,296,7.0,18.0,90,0.00,,,0.00,meteohub,2013-03-12 10:58:00,
2013-03-12 06:03:00,23.4,20.8,29.89,WNW,291,11.0,15.0,90,0.00,,,0.00,meteohub,2013-03-12 11:03:00,
2013-03-12 06:08:00,23.2,20.7,29.89,WNW,286,10.0,14.0,90,0.00,,,0.00,meteohub,2013-03-12 11:08:00,
2013-03-12 06:13:00,23.0,20.5,29.89,WNW,301,10.0,14.0,90,0.00,,,0.00,meteohub,2013-03-12 11:13:00,
2013-03-12 06:18:00,22.8,20.3,29.89,WNW,295,6.0,12.0,90,0.00,,,0.00,meteohub,2013-03-12 11:18:00,
2013-03-12 06:23:00,22.8,20.3,29.89,WNW,296,7.0,12.0,90,0.00,,,0.00,meteohub,2013-03-12 11:23:00,
2013-03-12 06:28:00,22.5,19.9,29.89,NW,313,7.0,15.0,90,0.00,,,0.00,meteohub,2013-03-12 11:28:00,
2013-03-12 06:33:00,22.1,19.6,29.89,WNW,289,3.0,15.0,90,0.00,,,0.00,meteohub,2013-03-12 11:33:00,
2013-03-12 06:38:00,21.7,19.6,29.89,NW,306,4.0,9.0,91,0.00,,,0.00,meteohub,2013-03-12 11:38:00,
2013-03-12 06:43:00,21.6,19.4,29.89,WNW,298,3.0,8.0,91,0.00,,,0.00,meteohub,2013-03-12 11:43:00,
2013-03-12 06:48:00,21.4,19.2,29.89,WNW,295,4.0,7.0,91,0.00,,,0.00,meteohub,2013-03-12 11:48:00,
2013-03-12 06:53:00,21.2,19.0,29.89,NW,307,6.0,7.0,91,0.00,,,0.00,meteohub,2013-03-12 11:53:00,
2013-03-12 06:58:00,21.0,18.9,29.89,NW,314,4.0,7.0,91,0.00,,,0.00,meteohub,2013-03-12 11:58:00,
2013-03-12 07:03:00,20.8,18.7,29.89,NW,307,3.0,9.0,91,0.00,,,0.00,meteohub,2013-03-12 12:03:00,
2013-03-12 07:08:00,20.8,18.7,29.89,NW,306,5.0,9.0,91,0.00,,,0.00,meteohub,2013-03-12 12:08:00,
2013-03-12 07:13:00,20.7,18.1,29.90,NW,305,7.0,9.0,90,0.00,,,0.00,meteohub,2013-03-12 12:13:00,
2013-03-12 07:18:00,20.7,18.1,29.89,WNW,300,4.0,9.0,90,0.00,,,0.00,meteohub,2013-03-12 12:18:00,
2013-03-12 07:23:00,20.5,18.0,29.89,WNW,298,5.0,9.0,90,0.00,,,0.00,meteohub,2013-03-12 12:23:00,
2013-03-12 07:28:00,20.3,17.8,29.89,WNW,298,3.0,9.0,90,0.00,,,0.00,meteohub,2013-03-12 12:28:00,
2013-03-12 07:33:00,19.9,17.4,29.90,NW,306,4.0,9.0,90,0.00,,,0.00,meteohub,2013-03-12 12:33:00,
2013-03-12 07:38:00,19.8,17.6,29.90,WNW,296,3.0,6.0,91,0.00,,,0.00,meteohub,2013-03-12 12:38:00,
2013-03-12 07:43:00,19.8,17.6,29.90,WNW,302,2.0,6.0,91,0.00,,,0.00,meteohub,2013-03-12 12:43:00,
2013-03-12 07:48:00,19.8,17.6,29.90,WNW,284,3.0,5.0,91,0.00,,,0.00,meteohub,2013-03-12 12:48:00,
2013-03-12 07:53:00,19.9,17.8,29.90,West,268,3.0,5.0,91,0.00,,,0.00,meteohub,2013-03-12 12:53:00,
2013-03-12 07:58:00,20.3,17.8,29.90,NW,309,5.0,5.0,90,0.00,,,0.00,meteohub,2013-03-12 12:58:00,
2013-03-12 08:03:00,20.7,18.1,29.90,NW,317,9.0,9.0,90,0.00,,,0.00,meteohub,2013-03-12 13:03:00,
2013-03-12 08:08:00,21.0,18.3,29.90,WNW,293,5.0,10.0,89,0.00,,,0.00,meteohub,2013-03-12 13:08:00,
2013-03-12 08:13:00,21.2,18.1,29.90,WNW,294,5.0,10.0,88,0.00,,,0.00,meteohub,2013-03-12 13:13:00,
2013-03-12 08:18:00,21.4,18.3,29.91,WNW,299,5.0,10.0,88,0.00,,,0.00,meteohub,2013-03-12 13:18:00,
2013-03-12 08:23:00,21.4,18.3,29.90,WNW,299,9.0,10.0,88,0.00,,,0.00,meteohub,2013-03-12 13:23:00,
2013-03-12 08:28:00,21.6,18.3,29.90,WNW,292,8.0,12.0,87,0.00,,,0.00,meteohub,2013-03-12 13:28:00,
2013-03-12 08:33:00,21.7,18.1,29.90,NW,308,7.0,12.0,86,0.00,,,0.00,meteohub,2013-03-12 13:33:00,
2013-03-12 08:38:00,21.9,18.1,29.90,NW,304,9.0,13.0,85,0.00,,,0.00,meteohub,2013-03-12 13:38:00,
2013-03-12 08:43:00,22.3,18.0,29.91,WNW,292,9.0,13.0,83,0.00,,,0.00,meteohub,2013-03-12 13:43:00,
2013-03-12 08:49:00,22.5,18.1,29.91,West,275,9.0,15.0,83,0.00,,,0.00,meteohub,2013-03-12 13:49:00,
2013-03-12 08:54:00,22.6,18.0,29.91,NW,310,8.0,15.0,82,0.00,,,0.00,meteohub,2013-03-12 13:54:00,
2013-03-12 08:59:00,22.6,18.0,29.91,WNW,303,9.0,15.0,82,0.00,,,0.00,meteohub,2013-03-12 13:59:00,
2013-03-12 09:04:00,22.8,18.1,29.91,WNW,301,8.0,14.0,82,0.00,,,0.00,meteohub,2013-03-12 14:04:00,
2013-03-12 09:09:00,23.2,18.5,29.91,West,281,10.0,14.0,82,0.00,,,0.00,meteohub,2013-03-12 14:09:00,
2013-03-12 09:14:00,23.2,18.5,29.91,WNW,303,6.0,13.0,82,0.00,,,0.00,meteohub,2013-03-12 14:14:00,
2013-03-12 09:19:00,23.4,18.3,29.91,WNW,289,7.0,13.0,81,0.00,,,0.00,meteohub,2013-03-12 14:19:00,
2013-03-12 09:24:00,23.5,18.5,29.91,WNW,302,9.0,15.0,81,0.00,,,0.00,meteohub,2013-03-12 14:24:00,
2013-03-12 09:29:00,23.5,18.5,29.91,WNW,287,12.0,15.0,81,0.00,,,0.00,meteohub,2013-03-12 14:29:00,
2013-03-12 09:34:00,23.7,18.7,29.92,WNW,303,13.0,15.0,81,0.00,,,0.00,meteohub,2013-03-12 14:34:00,
2013-03-12 09:39:00,23.7,18.7,29.92,WNW,289,11.0,16.0,81,0.00,,,0.00,meteohub,2013-03-12 14:39:00,
2013-03-12 09:44:00,24.1,19.0,29.92,NW,317,11.0,20.0,81,0.00,,,0.00,meteohub,2013-03-12 14:44:00,
2013-03-12 09:49:00,24.1,19.0,29.92,NNW,327,14.0,20.0,81,0.00,,,0.00,meteohub,2013-03-12 14:49:00,
2013-03-12 09:54:00,24.3,19.6,29.92,WNW,303,10.0,20.0,82,0.00,,,0.00,meteohub,2013-03-12 14:54:00,
2013-03-12 09:59:00,24.4,19.8,29.92,WNW,302,14.0,19.0,82,0.00,,,0.00,meteohub,2013-03-12 14:59:00,
2013-03-12 10:04:00,24.6,20.1,29.92,NW,306,14.0,19.0,83,0.00,,,0.00,meteohub,2013-03-12 15:04:00,
2013-03-12 10:09:00,25.2,20.7,29.92,WNW,298,11.0,17.0,83,0.00,,,0.00,meteohub,2013-03-12 15:09:00,
2013-03-12 10:14:00,25.5,20.8,29.92,WNW,296,11.0,17.0,82,0.00,,,0.00,meteohub,2013-03-12 15:14:00,
2013-03-12 10:19:00,25.7,21.0,29.92,NW,309,15.0,17.0,82,0.00,,,0.00,meteohub,2013-03-12 15:19:00,
2013-03-12 10:24:00,26.1,21.4,29.91,NW,318,16.0,20.0,82,0.00,,,0.00,meteohub,2013-03-12 15:24:00,
2013-03-12 10:29:00,26.2,21.6,29.91,West,281,12.0,20.0,82,0.00,,,0.00,meteohub,2013-03-12 15:29:00,
2013-03-12 10:34:00,26.4,21.4,29.92,NW,314,13.0,20.0,81,0.00,,,0.00,meteohub,2013-03-12 15:34:00,
2013-03-12 10:39:00,26.8,21.7,29.91,WNW,282,10.0,18.0,81,0.00,,,0.00,meteohub,2013-03-12 15:39:00,
2013-03-12 10:44:00,27.1,22.5,29.91,NW,310,11.0,17.0,82,0.00,,,0.00,meteohub,2013-03-12 15:44:00,
2013-03-12 10:49:00,27.3,21.7,29.91,WNW,299,14.0,18.0,79,0.00,,,0.00,meteohub,2013-03-12 15:49:00,
2013-03-12 10:54:00,27.7,22.3,29.91,WNW,296,10.0,18.0,80,0.00,,,0.00,meteohub,2013-03-12 15:54:00,
2013-03-12 10:59:00,28.0,22.6,29.92,NW,308,7.0,18.0,80,0.00,,,0.00,meteohub,2013-03-12 15:59:00,
2013-03-12 11:04:00,28.6,22.6,29.91,WNW,303,14.0,18.0,78,0.00,,,0.00,meteohub,2013-03-12 16:04:00,
2013-03-12 11:09:00,28.4,22.5,29.92,WNW,288,12.0,18.0,78,0.00,,,0.00,meteohub,2013-03-12 16:09:00,
2013-03-12 11:14:00,28.4,23.0,29.92,NW,311,15.0,19.0,80,0.00,,,0.00,meteohub,2013-03-12 16:14:00,
2013-03-12 11:19:00,28.0,22.6,29.92,WNW,289,10.0,19.0,80,0.00,,,0.00,meteohub,2013-03-12 16:19:00,
2013-03-12 11:24:00,28.0,23.0,29.92,WNW,303,18.0,22.0,81,0.00,,,0.00,meteohub,2013-03-12 16:24:00,
2013-03-12 11:29:00,28.0,23.0,29.92,NW,306,16.0,22.0,81,0.00,,,0.00,meteohub,2013-03-12 16:29:00,
2013-03-12 11:34:00,28.0,23.0,29.93,NNW,341,11.0,22.0,81,0.00,,,0.00,meteohub,2013-03-12 16:34:00,
2013-03-12 11:39:00,28.2,23.4,29.93,NW,315,9.0,22.0,82,0.00,,,0.00,meteohub,2013-03-12 16:39:00,
2013-03-12 11:45:00,28.2,23.4,29.93,NW,313,13.0,22.0,82,0.00,,,0.00,meteohub,2013-03-12 16:45:00,
2013-03-12 11:50:00,28.0,23.9,29.93,NW,313,18.0,21.0,84,0.00,,,0.00,meteohub,2013-03-12 16:50:00,
2013-03-12 11:55:00,27.9,24.3,29.93,NW,319,12.0,21.0,86,0.00,,,0.00,meteohub,2013-03-12 16:55:00,
2013-03-12 12:00:00,27.7,24.1,29.93,WNW,303,12.0,21.0,86,0.00,,,0.00,meteohub,2013-03-12 17:00:00,
2013-03-12 12:05:00,27.7,24.6,29.93,WNW,294,12.0,21.0,88,0.00,,,0.00,meteohub,2013-03-12 17:05:00,
2013-03-12 12:10:00,27.7,25.2,29.93,NW,306,11.0,18.0,90,0.00,,,0.00,meteohub,2013-03-12 17:10:00,
2013-03-12 12:15:00,27.9,25.5,29.93,WSW,258,8.0,18.0,91,0.00,,,0.00,meteohub,2013-03-12 17:15:00,
2013-03-12 12:20:00,28.0,25.7,29.93,WNW,299,8.0,16.0,91,0.00,,,0.00,meteohub,2013-03-12 17:20:00,
2013-03-12 12:25:00,28.0,25.7,29.93,West,262,11.0,13.0,91,0.00,,,0.00,meteohub,2013-03-12 17:25:00,
2013-03-12 12:30:00,28.0,25.5,29.93,NW,308,6.0,14.0,90,0.00,,,0.00,meteohub,2013-03-12 17:30:00,
2013-03-12 12:35:00,28.2,25.7,29.92,WNW,302,12.0,14.0,90,0.00,,,0.00,meteohub,2013-03-12 17:35:00,
2013-03-12 12:40:00,28.0,25.5,29.92,NW,315,7.0,14.0,90,0.00,,,0.00,meteohub,2013-03-12 17:40:00,
2013-03-12 12:45:00,28.0,25.7,29.92,West,264,9.0,14.0,91,0.00,,,0.00,meteohub,2013-03-12 17:45:00,
2013-03-12 12:50:00,28.0,25.7,29.92,WNW,286,9.0,14.0,91,0.00,,,0.00,meteohub,2013-03-12 17:50:00,
2013-03-12 12:55:00,28.0,25.7,29.92,West,267,7.0,14.0,91,0.00,,,0.00,meteohub,2013-03-12 17:55:00,
2013-03-12 13:00:00,28.0,25.7,29.92,WNW,297,7.0,14.0,91,0.00,,,0.00,meteohub,2013-03-12 18:00:00,
2013-03-12 13:05:00,28.2,25.9,29.92,NW,308,7.0,14.0,91,0.00,,,0.00,meteohub,2013-03-12 18:05:00,
2013-03-12 13:10:00,28.2,25.9,29.92,WNW,299,5.0,11.0,91,0.00,,,0.00,meteohub,2013-03-12 18:10:00,
2013-03-12 13:15:00,28.6,26.2,29.91,WNW,293,9.0,11.0,91,0.00,,,0.00,meteohub,2013-03-12 18:15:00,
2013-03-12 13:20:00,28.8,26.4,29.91,WNW,298,11.0,15.0,91,0.00,,,0.00,meteohub,2013-03-12 18:20:00,
2013-03-12 13:25:00,29.1,26.8,29.92,WNW,301,8.0,17.0,91,0.00,,,0.00,meteohub,2013-03-12 18:25:00,
2013-03-12 13:30:00,28.9,26.6,29.91,NW,313,8.0,17.0,91,0.00,,,0.00,meteohub,2013-03-12 18:30:00,
2013-03-12 13:35:00,28.9,26.6,29.91,WNW,299,8.0,17.0,91,0.00,,,0.00,meteohub,2013-03-12 18:35:00,
2013-03-12 13:40:00,29.1,27.1,29.91,WNW,294,12.0,16.0,92,0.00,,,0.00,meteohub,2013-03-12 18:40:00,
2013-03-12 13:45:00,29.1,27.1,29.91,NW,305,7.0,16.0,92,0.00,,,0.00,meteohub,2013-03-12 18:45:00,
2013-03-12 13:50:00,29.1,26.8,29.91,NW,308,8.0,17.0,91,0.00,,,0.00,meteohub,2013-03-12 18:50:00,
2013-03-12 13:55:00,29.1,26.8,29.91,NW,321,13.0,17.0,91,0.00,,,0.00,meteohub,2013-03-12 18:55:00,
2013-03-12 14:00:00,29.1,26.8,29.91,NNW,337,7.0,17.0,91,0.00,,,0.00,meteohub,2013-03-12 19:00:00,
2013-03-12 14:05:00,29.1,26.6,29.91,WNW,302,10.0,17.0,90,0.00,,,0.00,meteohub,2013-03-12 19:05:00,
2013-03-12 14:10:00,28.9,26.6,29.90,WNW,302,10.0,17.0,91,0.00,,,0.00,meteohub,2013-03-12 19:10:00,
2013-03-12 14:15:00,28.8,26.4,29.90,West,270,14.0,17.0,91,0.00,,,0.00,meteohub,2013-03-12 19:15:00,
2013-03-12 14:20:00,28.9,27.1,29.90,NW,320,4.0,20.0,93,0.00,,,0.00,meteohub,2013-03-12 19:20:00,
2013-03-12 14:25:00,28.9,27.1,29.90,NW,322,11.0,20.0,93,0.00,,,0.00,meteohub,2013-03-12 19:25:00,
2013-03-12 14:30:00,28.8,27.0,29.91,NW,322,10.0,18.0,93,0.00,,,0.00,meteohub,2013-03-12 19:30:00,
2013-03-12 14:35:00,28.8,27.0,29.90,NNW,327,13.0,14.0,93,0.00,,,0.00,meteohub,2013-03-12 19:35:00,
2013-03-12 14:41:00,28.6,26.8,29.91,NNW,334,15.0,15.0,93,0.00,,,0.00,meteohub,2013-03-12 19:41:00,
2013-03-12 14:46:00,28.0,26.1,29.91,NNW,329,15.0,25.0,92,0.00,,,0.00,meteohub,2013-03-12 19:46:00,
2013-03-12 14:51:00,27.9,26.1,29.91,NNW,334,5.0,25.0,93,0.00,,,0.00,meteohub,2013-03-12 19:51:00,
2013-03-12 14:56:00,28.2,26.2,29.91,NW,313,8.0,25.0,92,0.00,,,0.00,meteohub,2013-03-12 19:56:00,
2013-03-12 15:01:00,28.6,26.1,29.91,WNW,301,9.0,15.0,90,0.00,,,0.00,meteohub,2013-03-12 20:01:00,
2013-03-12 15:06:00,28.6,25.5,29.91,NW,318,14.0,15.0,88,0.00,,,0.00,meteohub,2013-03-12 20:06:00,
2013-03-12 15:11:00,28.6,25.2,29.91,NW,319,14.0,20.0,87,0.00,,,0.00,meteohub,2013-03-12 20:11:00,
2013-03-12 15:16:00,28.8,24.6,29.91,WNW,298,16.0,24.0,84,0.00,,,0.00,meteohub,2013-03-12 20:16:00,
2013-03-12 15:21:00,28.8,24.3,29.92,NW,315,13.0,24.0,83,0.00,,,0.00,meteohub,2013-03-12 20:21:00,
2013-03-12 15:26:00,28.9,23.5,29.91,NW,310,15.0,24.0,80,0.00,,,0.00,meteohub,2013-03-12 20:26:00,
2013-03-12 15:31:00,28.9,23.9,29.91,WNW,298,10.0,22.0,81,0.00,,,0.00,meteohub,2013-03-12 20:31:00,
2013-03-12 15:37:00,28.6,23.7,29.91,NW,315,18.0,22.0,82,0.00,,,0.00,meteohub,2013-03-12 20:37:00,
2013-03-12 15:42:00,27.9,24.4,29.92,NW,315,17.0,25.0,87,0.00,,,0.00,meteohub,2013-03-12 20:42:00,
2013-03-12 15:47:00,27.3,24.3,29.92,NNW,331,10.0,25.0,88,0.00,,,0.00,meteohub,2013-03-12 20:47:00,
2013-03-12 15:52:00,27.1,24.1,29.92,WNW,292,12.0,25.0,88,0.00,,,0.00,meteohub,2013-03-12 20:52:00,
2013-03-12 15:57:00,27.1,23.7,29.93,NW,322,8.0,24.0,87,0.00,,,0.00,meteohub,2013-03-12 20:57:00,
2013-03-12 16:02:00,27.3,23.7,29.93,WNW,299,10.0,19.0,86,0.00,,,0.00,meteohub,2013-03-12 21:02:00,
2013-03-12 16:07:00,27.5,23.5,29.93,NNW,334,6.0,19.0,85,0.00,,,0.00,meteohub,2013-03-12 21:07:00,
2013-03-12 16:12:00,27.9,23.4,29.93,WNW,303,6.0,17.0,83,0.00,,,0.00,meteohub,2013-03-12 21:12:00,
2013-03-12 16:17:00,28.2,23.2,29.93,NW,317,11.0,17.0,81,0.00,,,0.00,meteohub,2013-03-12 21:17:00,
2013-03-12 16:22:00,28.2,22.8,29.93,NNW,334,11.0,19.0,80,0.00,,,0.00,meteohub,2013-03-12 21:22:00,
2013-03-12 16:27:00,28.6,22.6,29.93,North,349,21.0,21.0,78,0.00,,,0.00,meteohub,2013-03-12 21:27:00,
2013-03-12 16:33:00,29.1,21.9,29.94,NW,308,12.0,24.0,74,0.00,,,0.00,meteohub,2013-03-12 21:33:00,
2013-03-12 16:38:00,28.8,21.9,29.94,NW,318,6.0,24.0,75,0.00,,,0.00,meteohub,2013-03-12 21:38:00,
2013-03-12 16:43:00,28.8,21.9,29.94,NW,313,7.0,24.0,75,0.00,,,0.00,meteohub,2013-03-12 21:43:00,
2013-03-12 16:48:00,28.8,22.1,29.94,NW,318,14.0,24.0,76,0.00,,,0.00,meteohub,2013-03-12 21:48:00,
2013-03-12 16:53:00,28.2,22.3,29.94,WNW,283,10.0,20.0,78,0.00,,,0.00,meteohub,2013-03-12 21:53:00,
2013-03-12 16:58:00,28.0,23.0,29.95,NW,321,10.0,23.0,81,0.00,,,0.00,meteohub,2013-03-12 21:58:00,
2013-03-12 17:03:00,27.7,22.6,29.95,NW,306,12.0,23.0,81,0.00,,,0.00,meteohub,2013-03-12 22:03:00,
2013-03-12 17:08:00,27.7,22.8,29.95,NW,312,6.0,22.0,82,0.00,,,0.00,meteohub,2013-03-12 22:08:00,
2013-03-12 17:13:00,27.7,22.8,29.95,NNW,336,9.0,20.0,82,0.00,,,0.00,meteohub,2013-03-12 22:13:00,
2013-03-12 17:18:00,27.7,22.6,29.95,WNW,300,12.0,18.0,81,0.00,,,0.00,meteohub,2013-03-12 22:18:00,
2013-03-12 17:23:00,27.1,23.0,29.96,NW,320,14.0,19.0,84,0.00,,,0.00,meteohub,2013-03-12 22:23:00,
2013-03-12 17:28:00,26.8,22.8,29.96,NW,315,19.0,22.0,85,0.00,,,0.00,meteohub,2013-03-12 22:28:00,
2013-03-12 17:33:00,26.8,22.8,29.96,WNW,303,7.0,22.0,85,0.00,,,0.00,meteohub,2013-03-12 22:33:00,
2013-03-12 17:38:00,26.8,22.8,29.96,WNW,287,8.0,21.0,85,0.00,,,0.00,meteohub,2013-03-12 22:38:00,
2013-03-12 17:43:00,26.8,22.8,29.96,NNW,327,12.0,22.0,85,0.00,,,0.00,meteohub,2013-03-12 22:43:00,
2013-03-12 17:48:00,27.0,22.5,29.96,NW,322,7.0,22.0,83,0.00,,,0.00,meteohub,2013-03-12 22:48:00,
2013-03-12 17:53:00,27.1,22.5,29.96,NW,320,9.0,18.0,82,0.00,,,0.00,meteohub,2013-03-12 22:53:00,
2013-03-12 17:58:00,27.0,22.5,29.96,NW,320,7.0,18.0,83,0.00,,,0.00,meteohub,2013-03-12 22:58:00,
2013-03-12 18:03:00,27.1,22.1,29.96,NNW,348,11.0,18.0,81,0.00,,,0.00,meteohub,2013-03-12 23:03:00,
2013-03-12 18:08:00,27.0,21.6,29.97,NNW,334,13.0,17.0,80,0.00,,,0.00,meteohub,2013-03-12 23:08:00,
2013-03-12 18:13:00,26.6,21.6,29.97,NW,319,10.0,20.0,81,0.00,,,0.00,meteohub,2013-03-12 23:13:00,
2013-03-12 18:18:00,26.4,21.7,29.97,NNW,337,14.0,21.0,82,0.00,,,0.00,meteohub,2013-03-12 23:18:00,
2013-03-12 18:23:00,26.2,21.7,29.97,NW,315,7.0,21.0,83,0.00,,,0.00,meteohub,2013-03-12 23:23:00,
2013-03-12 18:28:00,26.2,21.7,29.98,NW,315,9.0,21.0,83,0.00,,,0.00,meteohub,2013-03-12 23:28:00,
2013-03-12 18:33:00,26.2,21.7,29.98,NW,315,7.0,20.0,83,0.00,,,0.00,meteohub,2013-03-12 23:33:00,
2013-03-12 18:38:00,26.2,21.6,29.98,NW,308,16.0,16.0,82,0.00,,,0.00,meteohub,2013-03-12 23:38:00,
2013-03-12 18:43:00,26.1,21.4,29.98,NW,320,12.0,17.0,82,0.00,,,0.00,meteohub,2013-03-12 23:43:00,
2013-03-12 18:48:00,25.9,21.4,29.99,NW,319,11.0,21.0,83,0.00,,,0.00,meteohub,2013-03-12 23:48:00,
2013-03-12 18:53:00,25.7,21.0,29.99,NW,304,10.0,21.0,82,0.00,,,0.00,meteohub,2013-03-12 23:53:00,
2013-03-12 18:58:00,25.9,21.2,29.99,NNW,332,6.0,21.0,82,0.00,,,0.00,meteohub,2013-03-12 23:58:00,
2013-03-12 19:03:00,25.9,21.2,29.99,NW,307,10.0,19.0,82,0.00,,,0.00,meteohub,2013-03-13 00:03:00,
2013-03-12 19:08:00,25.7,21.0,29.99,NNW,327,13.0,18.0,82,0.00,,,0.00,meteohub,2013-03-13 00:08:00,
2013-03-12 19:13:00,25.5,21.0,29.99,WNW,298,16.0,18.0,83,0.00,,,0.00,meteohub,2013-03-13 00:13:00,
2013-03-12 19:18:00,25.3,21.4,30.00,NW,324,12.0,19.0,85,0.00,,,0.00,meteohub,2013-03-13 00:18:00,
2013-03-12 19:23:00,25.0,21.2,30.00,NW,311,13.0,19.0,85,0.00,,,0.00,meteohub,2013-03-13 00:23:00,
2013-03-12 19:28:00,25.2,21.0,30.00,NW,313,7.0,19.0,84,0.00,,,0.00,meteohub,2013-03-13 00:28:00,
2013-03-12 19:33:00,25.0,21.4,30.01,NW,310,9.0,17.0,86,0.00,,,0.00,meteohub,2013-03-13 00:33:00,
2013-03-12 19:39:00,24.8,21.2,30.01,NW,313,8.0,17.0,86,0.00,,,0.00,meteohub,2013-03-13 00:39:00,
2013-03-12 19:44:00,24.8,21.6,30.01,NW,314,14.0,18.0,87,0.00,,,0.00,meteohub,2013-03-13 00:44:00,
2013-03-12 19:49:00,24.6,21.0,30.01,NW,306,12.0,18.0,86,0.00,,,0.00,meteohub,2013-03-13 00:49:00,
2013-03-12 19:54:00,24.6,21.0,30.01,NW,318,13.0,18.0,86,0.00,,,0.00,meteohub,2013-03-13 00:54:00,
2013-03-12 19:59:00,24.6,21.0,30.01,NNW,332,9.0,18.0,86,0.00,,,0.00,meteohub,2013-03-13 00:59:00,
2013-03-12 20:04:00,24.4,20.7,30.01,NW,322,10.0,18.0,85,0.00,,,0.00,meteohub,2013-03-13 01:04:00,
2013-03-12 20:09:00,24.4,20.7,30.02,WNW,296,10.0,18.0,85,0.00,,,0.00,meteohub,2013-03-13 01:09:00,
2013-03-12 20:14:00,24.4,20.8,30.02,NNW,334,8.0,23.0,86,0.00,,,0.00,meteohub,2013-03-13 01:14:00,
2013-03-12 20:19:00,24.4,20.7,30.02,NW,311,6.0,23.0,85,0.00,,,0.00,meteohub,2013-03-13 01:19:00,
2013-03-12 20:24:00,24.4,20.7,30.02,NW,305,8.0,21.0,85,0.00,,,0.00,meteohub,2013-03-13 01:24:00,
2013-03-12 20:29:00,24.4,20.3,30.02,NW,315,6.0,13.0,84,0.00,,,0.00,meteohub,2013-03-13 01:29:00,
2013-03-12 20:34:00,24.4,20.7,30.02,NW,311,8.0,18.0,85,0.00,,,0.00,meteohub,2013-03-13 01:34:00,
2013-03-12 20:39:00,24.4,20.7,30.03,WNW,298,11.0,18.0,85,0.00,,,0.00,meteohub,2013-03-13 01:39:00,
2013-03-12 20:44:00,24.3,20.7,30.03,NW,310,9.0,18.0,86,0.00,,,0.00,meteohub,2013-03-13 01:44:00,
2013-03-12 20:49:00,24.3,21.0,30.03,NW,320,8.0,16.0,87,0.00,,,0.00,meteohub,2013-03-13 01:49:00,
2013-03-12 20:54:00,24.3,21.0,30.03,WNW,301,7.0,16.0,87,0.00,,,0.00,meteohub,2013-03-13 01:54:00,
2013-03-12 20:59:00,24.3,21.0,30.03,NW,313,7.0,16.0,87,0.00,,,0.00,meteohub,2013-03-13 01:59:00,
2013-03-12 21:04:00,24.3,21.0,30.04,NW,308,6.0,16.0,87,0.00,,,0.00,meteohub,2013-03-13 02:04:00,
2013-03-12 21:09:00,24.3,21.0,30.04,NW,320,11.0,16.0,87,0.00,,,0.00,meteohub,2013-03-13 02:09:00,
2013-03-12 21:14:00,24.1,20.8,30.04,West,276,11.0,15.0,87,0.00,,,0.00,meteohub,2013-03-13 02:14:00,
2013-03-12 21:19:00,24.1,20.8,30.04,NW,308,6.0,15.0,87,0.00,,,0.00,meteohub,2013-03-13 02:19:00,
2013-03-12 21:24:00,24.1,20.8,30.04,NW,318,10.0,17.0,87,0.00,,,0.00,meteohub,2013-03-13 02:24:00,
2013-03-12 21:29:00,24.1,20.8,30.04,NW,317,10.0,17.0,87,0.00,,,0.00,meteohub,2013-03-13 02:29:00,
2013-03-12 21:34:00,24.1,20.8,30.04,NW,311,13.0,16.0,87,0.00,,,0.00,meteohub,2013-03-13 02:34:00,
2013-03-12 21:39:00,24.1,20.8,30.05,NW,317,12.0,16.0,87,0.00,,,0.00,meteohub,2013-03-13 02:39:00,
2013-03-12 21:44:00,24.1,20.8,30.05,NW,308,8.0,17.0,87,0.00,,,0.00,meteohub,2013-03-13 02:44:00,
2013-03-12 21:49:00,24.1,20.8,30.05,NW,317,9.0,17.0,87,0.00,,,0.00,meteohub,2013-03-13 02:49:00,
2013-03-12 21:55:00,24.1,20.8,30.05,WNW,298,11.0,17.0,87,0.00,,,0.00,meteohub,2013-03-13 02:55:00,
2013-03-12 22:00:00,24.1,20.8,30.05,NW,321,10.0,15.0,87,0.00,,,0.00,meteohub,2013-03-13 03:00:00,
2013-03-12 22:05:00,24.1,20.8,30.05,NNW,338,4.0,16.0,87,0.00,,,0.00,meteohub,2013-03-13 03:05:00,
2013-03-12 22:10:00,24.1,20.8,30.06,NNW,343,9.0,16.0,87,0.00,,,0.00,meteohub,2013-03-13 03:10:00,
2013-03-12 22:15:00,24.1,20.5,30.06,NW,311,5.0,15.0,86,0.00,,,0.00,meteohub,2013-03-13 03:15:00,
2013-03-12 22:20:00,24.1,20.5,30.05,NW,315,10.0,16.0,86,0.00,,,0.00,meteohub,2013-03-13 03:20:00,
2013-03-12 22:25:00,23.9,20.3,30.06,WNW,299,8.0,16.0,86,0.00,,,0.00,meteohub,2013-03-13 03:25:00,
2013-03-12 22:30:00,23.9,20.3,30.06,WNW,298,9.0,15.0,86,0.00,,,0.00,meteohub,2013-03-13 03:30:00,
2013-03-12 22:35:00,23.9,20.3,30.06,NW,315,5.0,15.0,86,0.00,,,0.00,meteohub,2013-03-13 03:35:00,
2013-03-12 22:40:00,23.9,20.3,30.06,WNW,303,6.0,14.0,86,0.00,,,0.00,meteohub,2013-03-13 03:40:00,
2013-03-12 22:45:00,23.7,19.9,30.06,WNW,291,9.0,14.0,85,0.00,,,0.00,meteohub,2013-03-13 03:45:00,
2013-03-12 22:50:00,23.7,19.9,30.06,NW,320,9.0,14.0,85,0.00,,,0.00,meteohub,2013-03-13 03:50:00,
2013-03-12 22:55:00,23.7,19.9,30.06,NW,312,9.0,14.0,85,0.00,,,0.00,meteohub,2013-03-13 03:55:00,
2013-03-12 23:00:00,23.5,19.4,30.06,NW,317,9.0,13.0,84,0.00,,,0.00,meteohub,2013-03-13 04:00:00,
2013-03-12 23:05:00,23.5,19.4,30.06,NW,311,4.0,13.0,84,0.00,,,0.00,meteohub,2013-03-13 04:05:00,
2013-03-12 23:10:00,23.5,19.4,30.07,NNW,329,8.0,15.0,84,0.00,,,0.00,meteohub,2013-03-13 04:10:00,
2013-03-12 23:15:00,23.5,19.4,30.07,NW,311,9.0,17.0,84,0.00,,,0.00,meteohub,2013-03-13 04:15:00,
2013-03-12 23:20:00,23.5,19.4,30.07,NW,313,7.0,17.0,84,0.00,,,0.00,meteohub,2013-03-13 04:20:00,
2013-03-12 23:25:00,23.4,19.2,30.07,NW,311,8.0,17.0,84,0.00,,,0.00,meteohub,2013-03-13 04:25:00,
2013-03-12 23:30:00,23.4,19.6,30.08,WNW,298,8.0,15.0,85,0.00,,,0.00,meteohub,2013-03-13 04:30:00,
2013-03-12 23:35:00,23.4,19.6,30.08,NNW,327,7.0,16.0,85,0.00,,,0.00,meteohub,2013-03-13 04:35:00,
2013-03-12 23:40:00,23.4,19.6,30.08,NNW,334,10.0,16.0,85,0.00,,,0.00,meteohub,2013-03-13 04:40:00,
2013-03-12 23:45:00,23.4,19.6,30.08,NW,317,7.0,16.0,85,0.00,,,0.00,meteohub,2013-03-13 04:45:00,
2013-03-12 23:50:00,23.4,19.6,30.08,NW,319,11.0,17.0,85,0.00,,,0.00,meteohub,2013-03-13 04:50:00,
2013-03-12 23:55:00,23.4,19.2,30.08,NW,310,14.0,17.0,84,0.00,,,0.00,meteohub,2013-03-13 04:55:00,